createdAt,value
2019-05-02T00:01:27.784Z,109.17
2019-05-02T00:04:00.799Z,117.60
2019-05-02T00:06:38.090Z,120.47
2019-05-02T00:09:11.156Z,130.63
2019-05-02T00:11:52.289Z,138.00
2019-05-02T00:14:19.110Z,135.40
2019-05-02T00:16:52.015Z,139.33
2019-05-02T00:19:24.963Z,139.67
2019-05-02T00:21:58.039Z,146.97
2019-05-02T00:24:33.861Z,143.70
2019-05-02T00:27:06.106Z,114.90
2019-05-02T00:29:39.036Z,113.20
2019-05-02T00:32:12.224Z,111.47
2019-05-02T00:34:45.206Z,115.90
2019-05-02T00:37:18.929Z,120.17
2019-05-02T00:39:52.983Z,130.10
2019-05-02T00:42:25.776Z,136.60
2019-05-02T00:44:58.519Z,147.70
2019-05-02T00:47:42.398Z,151.43
2019-05-02T00:50:16.551Z,149.13
2019-05-02T00:52:49.485Z,134.63
2019-05-02T00:55:22.469Z,110.77
2019-05-02T00:57:56.816Z,100.07
2019-05-02T01:00:32.494Z,97.80
2019-05-02T01:03:05.504Z,97.83
2019-05-02T01:05:40.044Z,106.60
2019-05-02T01:08:14.144Z,109.27
2019-05-02T01:10:47.113Z,116.93
2019-05-02T01:13:21.105Z,107.83
2019-05-02T01:15:54.134Z,119.70
2019-05-02T01:18:27.313Z,109.93
2019-05-02T01:21:02.811Z,126.47
2019-05-02T01:23:34.862Z,130.30
2019-05-02T01:26:10.471Z,134.47
2019-05-02T01:28:59.079Z,133.47
2019-05-02T01:31:49.859Z,114.93
2019-05-02T01:34:36.847Z,133.17
2019-05-02T01:37:35.296Z,114.00
2019-05-02T01:40:08.391Z,110.93
2019-05-02T01:42:44.507Z,126.13
2019-05-02T01:45:16.219Z,123.90
2019-05-02T01:47:49.002Z,121.57
2019-05-02T01:50:21.835Z,138.77
2019-05-02T01:52:58.508Z,134.53
2019-05-02T01:55:29.547Z,140.77
2019-05-02T01:58:02.296Z,148.03
2019-05-02T02:00:35.071Z,156.80
2019-05-02T02:03:09.139Z,154.83
2019-05-02T02:05:43.075Z,146.23
2019-05-02T02:08:16.156Z,148.93
2019-05-02T02:10:50.784Z,136.37
2019-05-02T02:13:23.587Z,146.60
2019-05-02T02:16:00.127Z,135.40
2019-05-02T02:18:35.951Z,134.67
2019-05-02T02:21:25.629Z,129.73
2019-05-02T02:24:04.252Z,146.93
2019-05-02T02:26:37.052Z,152.30
2019-05-02T02:29:09.990Z,161.57
2019-05-02T02:31:46.514Z,161.17
2019-05-02T02:34:21.590Z,165.87
2019-05-02T02:36:52.392Z,154.63
2019-05-02T02:39:25.233Z,170.20
2019-05-02T02:41:58.283Z,167.77
2019-05-02T02:44:52.403Z,157.33
2019-05-02T02:47:25.802Z,162.23
2019-05-02T02:50:02.364Z,168.00
2019-05-02T02:52:37.883Z,178.07
2019-05-02T02:55:09.143Z,170.20
2019-05-02T02:57:42.275Z,152.27
2019-05-02T03:00:15.243Z,131.10
2019-05-02T03:02:49.967Z,119.87
2019-05-02T03:05:25.889Z,106.00
2019-05-02T03:07:59.480Z,120.40
2019-05-02T03:10:32.302Z,127.07
2019-05-02T03:13:24.280Z,138.07
2019-05-02T03:16:00.272Z,137.60
2019-05-02T03:18:39.803Z,128.67
2019-05-02T03:21:13.109Z,116.27
2019-05-02T03:23:42.506Z,104.87
2019-05-02T03:26:17.108Z,112.73
2019-05-02T03:28:57.191Z,118.63
2019-05-02T03:31:30.254Z,117.17
2019-05-02T03:34:01.184Z,125.50
2019-05-02T03:36:36.546Z,127.43
2019-05-02T03:39:14.938Z,124.07
2019-05-02T03:41:44.043Z,131.80
2019-05-02T03:44:24.780Z,125.70
2019-05-02T03:46:54.193Z,124.37
2019-05-02T03:49:26.516Z,139.87
2019-05-02T03:52:02.882Z,144.50
2019-05-02T03:54:34.642Z,147.73
2019-05-02T03:57:07.517Z,159.47
2019-05-02T03:59:41.858Z,156.67
2019-05-02T04:02:20.369Z,150.53
2019-05-02T04:04:59.886Z,133.57
2019-05-02T04:07:25.074Z,152.77
2019-05-02T04:09:58.194Z,166.47
2019-05-02T04:12:33.085Z,144.80
2019-05-02T04:15:09.482Z,149.70
2019-05-02T04:17:41.404Z,155.57
2019-05-02T04:20:14.223Z,148.07
2019-05-02T04:22:49.107Z,156.73
2019-05-02T04:25:27.929Z,157.93
2019-05-02T04:27:58.938Z,145.93
2019-05-02T04:30:31.917Z,155.77
2019-05-02T04:33:04.800Z,159.73
2019-05-02T04:35:37.860Z,157.03
2019-05-02T04:38:19.972Z,157.47
2019-05-02T04:40:48.913Z,158.97
2019-05-02T04:43:20.336Z,146.40
2019-05-02T04:48:43.848Z,161.37
2019-05-02T04:51:16.632Z,135.80
2019-05-02T04:53:49.879Z,155.27
2019-05-02T04:56:23.189Z,166.83
2019-05-02T04:58:56.039Z,163.47
2019-05-02T05:01:33.124Z,168.00
2019-05-02T05:04:03.648Z,164.63
2019-05-02T05:06:40.528Z,165.60
2019-05-02T05:09:14.707Z,170.97
2019-05-02T05:11:48.090Z,155.20
2019-05-02T05:14:20.568Z,164.27
2019-05-02T05:16:55.701Z,157.67
2019-05-02T05:19:32.641Z,161.43
2019-05-02T05:22:04.900Z,158.20
2019-05-02T05:24:43.237Z,164.17
2019-05-02T05:27:18.935Z,171.40
2019-05-02T05:29:53.528Z,168.80
2019-05-02T05:32:25.574Z,176.70
2019-05-02T05:35:03.298Z,171.73
2019-05-02T05:37:33.247Z,169.50
2019-05-02T05:40:08.226Z,171.17
2019-05-02T05:42:40.959Z,154.47
2019-05-02T05:45:14.164Z,168.87
2019-05-02T05:47:47.894Z,161.83
2019-05-02T05:50:20.984Z,167.10
2019-05-02T05:52:53.759Z,171.73
2019-05-02T05:55:28.170Z,164.20
2019-05-02T05:58:11.877Z,157.93
2019-05-02T06:00:38.035Z,146.60
2019-05-02T06:03:14.061Z,150.73
2019-05-02T06:05:47.718Z,140.43
2019-05-02T06:08:20.779Z,154.27
2019-05-02T06:10:53.939Z,166.13
2019-05-02T06:13:28.933Z,148.13
2019-05-02T06:16:03.188Z,155.33
2019-05-02T06:18:41.738Z,141.80
2019-05-02T06:21:12.433Z,141.00
2019-05-02T06:23:45.638Z,145.47
2019-05-02T06:26:18.515Z,152.80
2019-05-02T06:28:51.648Z,160.50
2019-05-02T06:31:24.525Z,140.60
2019-05-02T06:34:01.982Z,143.20
2019-05-02T06:36:36.811Z,151.83
2019-05-02T06:39:19.525Z,149.37
2019-05-02T06:41:57.155Z,147.97
2019-05-02T06:44:27.353Z,139.87
2019-05-02T06:47:04.350Z,131.07
2019-05-02T06:49:35.991Z,134.60
2019-05-02T06:52:08.810Z,136.30
2019-05-02T06:54:41.668Z,135.23
2019-05-02T06:57:14.478Z,135.93
2019-05-02T06:59:50.022Z,133.20
2019-05-02T07:02:22.144Z,127.00
2019-05-02T07:04:56.012Z,147.37
2019-05-02T07:07:31.337Z,131.57
2019-05-02T07:10:07.251Z,126.92
2019-05-02T07:12:39.455Z,116.97
2019-05-02T07:15:38.415Z,126.37
2019-05-02T07:18:12.616Z,125.43
2019-05-02T07:20:45.546Z,133.73
2019-05-02T07:23:18.476Z,129.47
2019-05-02T07:25:51.734Z,129.97
2019-05-02T07:28:24.676Z,132.35
2019-05-02T07:30:57.991Z,123.33
2019-05-02T07:33:32.402Z,127.45
2019-05-02T07:36:05.694Z,131.40
2019-05-02T07:38:39.552Z,133.55
2019-05-02T07:41:12.566Z,125.35
2019-05-02T07:43:45.467Z,125.07
2019-05-02T07:46:21.033Z,122.65
2019-05-02T07:48:54.633Z,113.97
2019-05-02T07:51:28.020Z,97.67
2019-05-02T07:54:00.822Z,88.00
2019-05-02T07:56:33.851Z,83.33
2019-05-02T07:59:06.856Z,77.85
2019-05-02T08:01:44.962Z,87.55
2019-05-02T08:04:15.566Z,77.58
2019-05-02T08:06:48.594Z,80.32
2019-05-02T08:09:21.454Z,69.60
2019-05-02T08:11:54.364Z,72.97
2019-05-02T08:14:29.144Z,69.95
2019-05-02T08:17:05.865Z,61.28
2019-05-02T08:19:37.570Z,66.75
2019-05-02T08:22:14.540Z,70.63
2019-05-02T08:24:46.470Z,71.25
2019-05-02T08:27:39.969Z,79.58
2019-05-02T08:30:19.985Z,76.25
2019-05-02T08:32:52.842Z,77.17
2019-05-02T08:35:28.008Z,82.37
2019-05-02T08:38:01.632Z,93.27
2019-05-02T08:40:36.043Z,81.17
2019-05-02T08:43:10.827Z,80.95
2019-05-02T08:45:43.602Z,83.67
2019-05-02T08:48:16.652Z,82.10
2019-05-02T08:50:51.060Z,86.32
2019-05-02T08:53:23.946Z,87.53
2019-05-02T08:55:56.845Z,86.75
2019-05-02T08:58:29.905Z,87.47
2019-05-02T09:01:03.037Z,86.35
2019-05-02T09:03:54.803Z,84.85
2019-05-02T09:06:10.731Z,87.02
2019-05-02T09:08:46.187Z,82.00
2019-05-02T09:11:18.354Z,91.78
2019-05-02T09:13:52.592Z,96.85
2019-05-02T09:16:28.692Z,102.20
2019-05-02T09:19:02.635Z,101.30
2019-05-02T09:21:36.025Z,98.27
2019-05-02T09:24:13.576Z,100.75
2019-05-02T09:26:43.837Z,92.57
2019-05-02T09:29:16.706Z,100.10
2019-05-02T09:31:49.466Z,95.67
2019-05-02T09:34:26.523Z,97.25
2019-05-02T09:36:57.028Z,94.20
2019-05-02T09:39:32.705Z,95.15
2019-05-02T09:42:06.637Z,101.25
2019-05-02T09:44:39.496Z,90.85
2019-05-02T09:47:22.202Z,101.40
2019-05-02T09:50:14.118Z,98.15
2019-05-02T09:55:50.262Z,93.97
2019-05-02T09:58:21.901Z,104.63
2019-05-02T10:01:11.754Z,105.40
2019-05-02T10:03:44.727Z,96.95
2019-05-02T10:06:18.298Z,103.10
2019-05-02T10:08:52.009Z,98.25
2019-05-02T10:11:26.306Z,91.05
2019-05-02T10:13:59.262Z,103.27
2019-05-02T10:16:32.112Z,97.02
2019-05-02T10:19:09.639Z,91.70
2019-05-02T10:21:39.781Z,92.08
2019-05-02T10:24:12.913Z,94.47
2019-05-02T10:26:45.845Z,83.58
2019-05-02T10:29:20.954Z,91.53
2019-05-02T10:31:53.551Z,87.22
2019-05-02T10:34:26.562Z,73.95
2019-05-02T10:37:00.962Z,78.80
2019-05-02T10:39:37.799Z,77.47
2019-05-02T10:42:08.828Z,81.25
2019-05-02T10:44:42.630Z,84.35
2019-05-02T10:47:15.784Z,76.47
2019-05-02T10:49:59.398Z,78.15
2019-05-02T10:52:34.251Z,80.15
2019-05-02T10:55:07.189Z,73.37
2019-05-02T10:57:42.048Z,77.55
2019-05-02T11:00:16.227Z,82.05
2019-05-02T11:03:14.807Z,74.42
2019-05-02T11:05:52.799Z,77.65
2019-05-02T11:08:26.017Z,77.27
2019-05-02T11:10:59.104Z,70.03
2019-05-02T11:13:43.332Z,67.03
2019-05-02T11:16:32.288Z,122.17
2019-05-02T11:19:08.784Z,73.97
2019-05-02T11:21:53.556Z,82.95
2019-05-02T11:24:16.608Z,68.47
2019-05-02T11:26:49.524Z,69.55
2019-05-02T11:29:22.771Z,75.28
2019-05-02T11:31:55.897Z,71.17
2019-05-02T11:34:32.491Z,80.95
2019-05-02T11:37:05.179Z,68.85
2019-05-02T11:39:48.505Z,67.95
2019-05-02T11:42:17.542Z,70.78
2019-05-02T11:44:48.260Z,65.80
2019-05-02T11:47:22.738Z,76.50
2019-05-02T11:49:56.183Z,66.35
2019-05-02T11:52:34.836Z,68.12
2019-05-02T11:55:04.465Z,61.75
2019-05-02T11:57:37.520Z,69.32
2019-05-02T12:00:12.476Z,63.15
2019-05-02T12:03:04.988Z,68.97
2019-05-02T12:05:41.944Z,67.32
2019-05-02T12:08:15.368Z,66.37
2019-05-02T12:10:48.509Z,62.55
2019-05-02T12:13:22.673Z,60.08
2019-05-02T12:15:55.855Z,61.55
2019-05-02T12:18:29.043Z,61.48
2019-05-02T12:21:02.728Z,62.50
2019-05-02T12:23:36.329Z,66.05
2019-05-02T12:26:09.474Z,62.67
2019-05-02T12:28:42.981Z,57.73
2019-05-02T12:31:26.068Z,62.33
2019-05-02T12:34:02.638Z,64.80
2019-05-02T12:36:35.903Z,64.50
2019-05-02T12:39:09.943Z,60.95
2019-05-02T12:41:43.082Z,63.05
2019-05-02T12:44:16.285Z,52.53
2019-05-02T12:46:51.627Z,55.67
2019-05-02T12:49:27.702Z,67.42
2019-05-02T12:51:58.868Z,59.93
2019-05-02T12:54:32.520Z,66.35
2019-05-02T12:57:05.646Z,56.73
2019-05-02T12:59:38.719Z,62.33
2019-05-02T13:02:18.511Z,57.80
2019-05-02T13:04:52.702Z,55.92
2019-05-02T13:07:25.705Z,61.75
2019-05-02T13:09:58.864Z,61.70
2019-05-02T13:12:35.134Z,60.90
2019-05-02T13:15:08.721Z,57.85
2019-05-02T13:17:48.741Z,58.70
2019-05-02T13:20:18.880Z,55.60
2019-05-02T13:23:08.194Z,57.40
2019-05-02T13:25:42.372Z,53.50
2019-05-02T13:28:17.014Z,45.95
2019-05-02T13:31:02.229Z,44.85
2019-05-02T13:33:42.799Z,44.20
2019-05-02T13:36:51.885Z,43.08
2019-05-02T13:39:34.734Z,48.15
2019-05-02T13:42:08.590Z,45.15
2019-05-02T13:44:48.956Z,45.08
2019-05-02T13:47:22.752Z,45.55
2019-05-02T13:50:00.684Z,48.02
2019-05-02T13:52:33.198Z,45.00
2019-05-02T13:55:07.372Z,44.23
2019-05-02T13:57:43.015Z,44.77
2019-05-02T14:00:19.774Z,52.15
2019-05-02T14:02:52.862Z,41.42
2019-05-02T14:05:25.845Z,45.38
2019-05-02T14:08:16.655Z,43.35
2019-05-02T14:10:53.349Z,43.08
2019-05-02T14:13:26.409Z,44.70
2019-05-02T14:15:59.534Z,45.60
2019-05-02T14:18:33.587Z,43.85
2019-05-02T14:21:07.057Z,39.98
2019-05-02T14:23:41.903Z,54.10
2019-05-02T14:26:27.236Z,41.15
2019-05-02T14:28:49.214Z,35.28
2019-05-02T14:31:22.136Z,40.03
2019-05-02T14:34:23.682Z,36.58
2019-05-02T14:36:59.333Z,38.88
2019-05-02T14:39:32.557Z,42.85
2019-05-02T14:42:05.591Z,38.48
2019-05-02T14:45:01.538Z,39.78
2019-05-02T14:47:18.243Z,41.10
2019-05-02T14:49:48.380Z,40.00
2019-05-02T14:52:22.148Z,44.58
2019-05-02T14:54:55.718Z,36.05
2019-05-02T14:57:28.783Z,37.93
2019-05-02T15:00:03.356Z,33.53
2019-05-02T15:02:49.006Z,38.88
2019-05-02T15:05:19.183Z,38.83
2019-05-02T15:07:56.876Z,38.58
2019-05-02T15:10:28.287Z,43.75
2019-05-02T15:13:01.933Z,43.68
2019-05-02T15:15:40.884Z,52.10
2019-05-02T15:18:13.454Z,51.23
2019-05-02T15:20:45.407Z,56.77
2019-05-02T15:23:19.838Z,54.05
2019-05-02T15:25:56.075Z,59.27
2019-05-02T15:28:30.554Z,48.40
2019-05-02T15:31:05.448Z,57.88
2019-05-02T15:33:51.882Z,54.08
2019-05-02T15:36:24.688Z,54.50
2019-05-02T15:41:32.700Z,59.13
2019-05-02T15:44:05.941Z,63.33
2019-05-02T15:46:40.277Z,65.35
2019-05-02T15:49:13.221Z,59.58
2019-05-02T15:51:49.853Z,57.98
2019-05-02T15:54:22.697Z,62.60
2019-05-02T15:57:05.479Z,58.35
2019-05-02T15:59:32.404Z,53.95
2019-05-02T16:02:10.107Z,59.83
2019-05-02T16:04:43.642Z,63.00
2019-05-02T16:07:17.642Z,63.58
2019-05-02T16:09:51.584Z,64.60
2019-05-02T16:12:27.283Z,67.08
2019-05-02T16:15:02.257Z,63.78
2019-05-02T16:17:35.251Z,62.35
2019-05-02T16:20:16.567Z,64.35
2019-05-02T16:22:50.021Z,73.07
2019-05-02T16:25:24.522Z,75.57
2019-05-02T16:28:02.723Z,86.55
2019-05-02T16:30:32.561Z,104.55
2019-05-02T16:33:08.005Z,146.82
2019-05-02T16:35:41.938Z,114.77
2019-05-02T16:38:14.889Z,130.27
2019-05-02T16:40:48.105Z,141.65
2019-05-02T16:43:22.271Z,164.28
2019-05-02T16:45:56.853Z,214.57
2019-05-02T16:48:30.563Z,270.05
2019-05-02T16:51:08.150Z,191.65
2019-05-02T16:53:39.295Z,220.55
2019-05-02T16:56:12.258Z,270.88
2019-05-02T16:58:47.008Z,240.65
2019-05-02T17:01:24.560Z,256.65
2019-05-02T17:03:57.739Z,281.05
2019-05-02T17:06:30.083Z,277.07
2019-05-02T17:09:21.706Z,301.67
2019-05-02T17:11:53.832Z,232.92
2019-05-02T17:14:26.928Z,360.25
2019-05-02T17:17:01.530Z,308.35
2019-05-02T17:19:34.883Z,288.90
2019-05-02T17:22:07.808Z,213.28
2019-05-02T17:24:41.871Z,308.95
2019-05-02T17:27:20.510Z,216.35
2019-05-02T17:29:54.277Z,211.95
2019-05-02T17:32:28.823Z,305.92
2019-05-02T17:35:02.633Z,268.50
2019-05-02T17:37:34.737Z,319.23
2019-05-02T17:40:08.354Z,364.55
2019-05-02T17:42:41.560Z,310.43
2019-05-02T17:45:15.407Z,258.47
2019-05-02T17:47:48.419Z,225.60
2019-05-02T17:50:29.163Z,279.70
2019-05-02T17:53:03.067Z,235.75
2019-05-02T17:55:40.370Z,285.48
2019-05-02T17:58:12.789Z,194.43
2019-05-02T18:00:54.574Z,229.07
2019-05-02T18:03:30.779Z,217.18
2019-05-02T18:05:58.149Z,166.12
2019-05-02T18:08:32.279Z,198.65
2019-05-02T18:11:05.398Z,146.43
2019-05-02T18:13:38.235Z,189.15
2019-05-02T18:16:15.005Z,172.05
2019-05-02T18:18:46.870Z,167.75
2019-05-02T18:21:26.899Z,204.47
2019-05-02T18:23:57.245Z,198.05
2019-05-02T18:26:31.728Z,193.57
2019-05-02T18:29:06.828Z,166.60
2019-05-02T18:31:43.415Z,185.95
2019-05-02T18:34:20.177Z,189.07
2019-05-02T18:36:48.844Z,201.80
2019-05-02T18:39:22.950Z,177.67
2019-05-02T18:41:56.048Z,201.07
2019-05-02T18:44:29.268Z,219.07
2019-05-02T18:47:02.508Z,168.82
2019-05-02T18:49:35.969Z,181.23
2019-05-02T18:52:09.006Z,213.18
2019-05-02T18:54:43.948Z,235.38
2019-05-02T18:57:21.434Z,249.00
2019-05-02T18:59:56.077Z,181.87
2019-05-02T19:02:32.740Z,185.60
2019-05-02T19:05:01.988Z,222.53
2019-05-02T19:07:35.897Z,176.73
2019-05-02T19:10:09.278Z,273.00
2019-05-02T19:12:42.685Z,215.50
2019-05-02T19:15:16.073Z,170.93
2019-05-02T19:17:48.990Z,220.90
2019-05-02T19:20:59.725Z,184.07
2019-05-02T19:23:34.448Z,171.20
2019-05-02T19:26:14.641Z,169.97
2019-05-02T19:29:02.514Z,203.90
2019-05-02T19:31:46.086Z,188.90
2019-05-02T19:34:22.838Z,205.77
2019-05-02T19:36:58.019Z,175.77
2019-05-02T19:39:29.768Z,189.05
2019-05-02T19:42:02.750Z,158.65
2019-05-02T19:44:35.660Z,157.33
2019-05-02T19:47:13.716Z,173.10
2019-05-02T19:49:47.243Z,191.03
2019-05-02T19:52:18.247Z,198.70
2019-05-02T19:54:51.879Z,179.35
2019-05-02T19:57:26.376Z,178.35
2019-05-02T20:00:02.679Z,164.05
2019-05-02T20:02:37.485Z,178.12
2019-05-02T20:05:09.413Z,174.50
2019-05-02T20:07:42.726Z,168.37
2019-05-02T20:10:17.861Z,175.18
2019-05-02T20:12:52.755Z,192.35
2019-05-02T20:15:28.943Z,209.70
2019-05-02T20:18:04.637Z,204.07
2019-05-02T20:21:02.676Z,194.77
2019-05-02T20:23:35.913Z,210.23
2019-05-02T20:26:09.368Z,183.85
2019-05-02T20:28:43.750Z,192.03
2019-05-02T20:31:16.842Z,200.93
2019-05-02T20:33:51.899Z,177.38
2019-05-02T20:36:24.526Z,195.00
2019-05-02T20:39:11.764Z,178.82
2019-05-02T20:41:44.476Z,211.62
2019-05-02T20:44:17.507Z,209.52
2019-05-02T20:46:51.620Z,194.82
2019-05-02T20:49:25.071Z,171.82
2019-05-02T20:51:57.950Z,217.95
2019-05-02T20:54:32.278Z,225.13
2019-05-02T20:57:05.486Z,233.87
2019-05-02T20:59:38.582Z,216.63
2019-05-02T21:02:12.322Z,210.80
2019-05-02T21:04:45.284Z,207.37
2019-05-02T21:07:29.522Z,267.62
2019-05-02T21:10:13.611Z,189.72
2019-05-02T21:12:46.558Z,164.13
2019-05-02T21:15:21.609Z,185.30
2019-05-02T21:17:54.447Z,204.83
2019-05-02T21:20:27.526Z,184.52
2019-05-02T21:23:01.960Z,213.35
2019-05-02T21:25:34.931Z,193.13
2019-05-02T21:28:07.891Z,232.27
2019-05-02T21:30:41.619Z,274.27
2019-05-02T21:33:37.464Z,215.17
2019-05-02T21:36:12.034Z,183.90
2019-05-02T21:38:45.170Z,154.75
2019-05-02T21:41:18.510Z,95.13
2019-05-02T21:43:51.844Z,130.10
2019-05-02T21:46:24.872Z,113.90
2019-05-02T21:48:57.754Z,95.80
2019-05-02T21:51:56.197Z,95.87
2019-05-02T21:54:57.678Z,121.57
2019-05-02T21:57:32.272Z,110.43
2019-05-02T22:00:08.850Z,108.00
2019-05-02T22:02:43.702Z,96.70
2019-05-02T22:05:16.576Z,112.67
2019-05-02T22:07:49.376Z,111.73
2019-05-02T22:10:22.745Z,120.93
2019-05-02T22:12:55.627Z,122.63
2019-05-02T22:15:28.702Z,146.07
2019-05-02T22:18:01.737Z,120.97
2019-05-02T22:20:34.771Z,122.63
2019-05-02T22:23:07.676Z,90.87
2019-05-02T22:25:41.945Z,82.23
2019-05-02T22:28:15.103Z,108.97
2019-05-02T22:30:48.141Z,112.03
2019-05-02T22:33:22.188Z,118.93
2019-05-02T22:35:55.143Z,101.20
2019-05-02T22:38:46.211Z,126.33
2019-05-02T22:41:19.157Z,122.93
2019-05-02T22:43:52.223Z,124.33
2019-05-02T22:46:43.160Z,139.40
2019-05-02T22:49:16.246Z,131.57
2019-05-02T22:51:49.090Z,128.90
2019-05-02T22:54:27.701Z,123.77
2019-05-02T22:56:56.851Z,130.33
2019-05-02T22:59:31.602Z,127.60
2019-05-02T23:02:04.514Z,141.83
2019-05-02T23:04:37.453Z,139.10
2019-05-02T23:07:10.350Z,118.80
2019-05-02T23:09:43.754Z,101.80
2019-05-02T23:12:16.807Z,118.80
2019-05-02T23:14:49.596Z,111.10
2019-05-02T23:17:23.136Z,98.50
2019-05-02T23:19:56.628Z,121.20
2019-05-02T23:22:29.574Z,110.73
2019-05-02T23:25:40.132Z,102.47
2019-05-02T23:28:16.862Z,90.93
2019-05-02T23:30:51.815Z,82.53
2019-05-02T23:33:27.702Z,84.77
2019-05-02T23:36:02.000Z,80.13
2019-05-02T23:38:35.099Z,71.73
2019-05-02T23:41:07.908Z,68.23
2019-05-02T23:43:41.649Z,81.20
2019-05-02T23:46:14.817Z,82.80
2019-05-02T23:48:48.718Z,76.37
2019-05-02T23:51:22.600Z,79.50
2019-05-02T23:53:55.742Z,81.57
2019-05-02T23:56:28.667Z,65.17
2019-05-02T23:59:02.733Z,86.37
